createdAt,value
2017-09-20T00:00:54.953Z,11.70
2017-09-20T00:03:21.589Z,12.10
2017-09-20T00:05:48.234Z,13.35
2017-09-20T00:08:14.846Z,13.77
2017-09-20T00:10:41.510Z,14.70
2017-09-20T00:13:08.127Z,13.68
2017-09-20T00:15:34.744Z,13.00
2017-09-20T00:18:01.426Z,13.45
2017-09-20T00:20:28.111Z,12.80
2017-09-20T00:22:54.720Z,14.07
2017-09-20T00:25:21.351Z,13.43
2017-09-20T00:27:47.963Z,11.00
2017-09-20T00:30:14.626Z,11.07
2017-09-20T00:32:41.253Z,12.10
2017-09-20T00:35:07.902Z,10.60
2017-09-20T00:37:34.546Z,10.85
2017-09-20T00:40:01.186Z,10.85
2017-09-20T00:42:27.805Z,9.27
2017-09-20T00:44:54.453Z,9.10
2017-09-20T00:47:21.096Z,8.52
2017-09-20T00:49:47.703Z,9.20
2017-09-20T00:52:14.312Z,9.00
2017-09-20T00:54:40.926Z,9.05
2017-09-20T00:57:07.530Z,8.05
2017-09-20T00:59:34.139Z,9.25
2017-09-20T01:02:00.778Z,9.30
2017-09-20T01:04:27.380Z,9.00
2017-09-20T01:06:53.982Z,8.85
2017-09-20T01:09:20.602Z,8.68
2017-09-20T01:11:47.211Z,8.63
2017-09-20T01:14:13.822Z,10.35
2017-09-20T01:16:40.451Z,8.35
2017-09-20T01:19:07.066Z,10.40
2017-09-20T01:21:39.587Z,10.63
2017-09-20T01:24:06.201Z,9.98
2017-09-20T01:26:32.814Z,11.88
2017-09-20T01:28:59.499Z,13.23
2017-09-20T01:31:26.104Z,10.88
2017-09-20T01:33:52.765Z,11.45
2017-09-20T01:36:19.407Z,9.73
2017-09-20T01:38:46.009Z,10.77
2017-09-20T01:41:12.615Z,8.80
2017-09-20T01:43:39.246Z,9.57
2017-09-20T01:46:05.855Z,9.98
2017-09-20T01:48:32.457Z,9.60
2017-09-20T01:50:59.097Z,10.43
2017-09-20T01:53:25.725Z,9.57
2017-09-20T01:55:52.338Z,10.30
2017-09-20T01:58:18.969Z,10.30
2017-09-20T02:00:45.577Z,10.50
2017-09-20T02:03:12.196Z,9.13
2017-09-20T02:05:38.878Z,10.57
2017-09-20T02:08:05.497Z,10.55
2017-09-20T02:10:32.118Z,10.15
2017-09-20T02:12:58.750Z,10.10
2017-09-20T02:15:25.355Z,9.88
2017-09-20T02:17:51.966Z,10.38
2017-09-20T02:20:18.602Z,11.10
2017-09-20T02:22:45.222Z,10.85
2017-09-20T02:25:11.826Z,9.25
2017-09-20T02:27:38.453Z,10.13
2017-09-20T02:30:05.063Z,9.23
2017-09-20T02:32:31.691Z,10.05
2017-09-20T02:34:58.319Z,9.88
2017-09-20T02:37:24.982Z,10.57
2017-09-20T02:39:51.600Z,10.23
2017-09-20T02:42:18.230Z,10.75
2017-09-20T02:44:44.846Z,10.82
2017-09-20T02:47:11.462Z,10.55
2017-09-20T02:49:38.092Z,12.32
2017-09-20T02:52:04.708Z,11.85
2017-09-20T02:54:31.345Z,14.35
2017-09-20T02:56:57.969Z,13.98
2017-09-20T02:59:24.581Z,15.63
2017-09-20T03:01:51.547Z,15.10
2017-09-20T03:04:18.171Z,18.48
2017-09-20T03:06:44.778Z,17.37
2017-09-20T03:09:11.386Z,19.17
2017-09-20T03:11:38.125Z,17.50
2017-09-20T03:14:04.734Z,17.08
2017-09-20T03:16:31.345Z,17.12
2017-09-20T03:18:58.001Z,17.30
2017-09-20T03:21:24.620Z,16.15
2017-09-20T03:23:51.226Z,15.48
2017-09-20T03:26:17.862Z,12.93
2017-09-20T03:28:44.474Z,12.88
2017-09-20T03:31:11.083Z,12.98
2017-09-20T03:33:37.709Z,11.27
2017-09-20T03:36:04.326Z,10.13
2017-09-20T03:38:30.937Z,10.07
2017-09-20T03:40:57.596Z,11.95
2017-09-20T03:43:24.214Z,10.55
2017-09-20T03:45:50.830Z,11.80
2017-09-20T03:48:17.506Z,11.40
2017-09-20T03:50:44.124Z,10.48
2017-09-20T03:53:10.726Z,9.85
2017-09-20T03:55:37.359Z,10.80
2017-09-20T03:58:03.973Z,11.60
2017-09-20T04:00:30.590Z,11.65
2017-09-20T04:02:57.242Z,11.35
2017-09-20T04:05:23.854Z,11.35
2017-09-20T04:07:50.462Z,12.85
2017-09-20T04:10:17.158Z,14.23
2017-09-20T04:12:43.766Z,14.38
2017-09-20T04:15:10.381Z,13.90
2017-09-20T04:17:37.001Z,14.87
2017-09-20T04:20:03.609Z,12.82
2017-09-20T04:22:30.294Z,14.25
2017-09-20T04:24:56.922Z,13.45
2017-09-20T04:27:23.534Z,14.27
2017-09-20T04:29:50.174Z,12.50
2017-09-20T04:32:16.851Z,14.73
2017-09-20T04:34:43.462Z,13.15
2017-09-20T04:37:10.130Z,12.18
2017-09-20T04:39:36.826Z,11.65
2017-09-20T04:42:03.442Z,13.50
2017-09-20T04:44:30.148Z,12.30
2017-09-20T04:46:56.770Z,13.13
2017-09-20T04:49:23.486Z,13.57
2017-09-20T04:51:50.097Z,12.95
2017-09-20T04:54:16.762Z,14.18
2017-09-20T04:56:43.374Z,13.93
2017-09-20T04:59:09.986Z,16.42
2017-09-20T05:01:36.679Z,15.77
2017-09-20T05:04:03.358Z,15.57
2017-09-20T05:06:29.943Z,15.30
2017-09-20T05:08:56.582Z,15.50
2017-09-20T05:11:23.203Z,15.55
2017-09-20T05:13:49.819Z,16.48
2017-09-20T05:16:16.454Z,15.60
2017-09-20T05:18:43.067Z,16.92
2017-09-20T05:21:09.784Z,15.18
2017-09-20T05:23:36.438Z,15.20
2017-09-20T05:26:03.058Z,12.70
2017-09-20T05:28:29.709Z,13.43
2017-09-20T05:30:56.342Z,14.63
2017-09-20T05:33:22.954Z,11.80
2017-09-20T05:35:49.567Z,11.57
2017-09-20T05:38:16.202Z,10.60
2017-09-20T05:40:42.822Z,10.75
2017-09-20T05:43:09.426Z,9.85
2017-09-20T05:45:36.078Z,10.00
2017-09-20T05:48:02.696Z,10.48
2017-09-20T05:50:29.305Z,10.60
2017-09-20T05:52:55.929Z,10.90
2017-09-20T05:55:22.537Z,11.60
2017-09-20T05:57:49.159Z,11.52
2017-09-20T06:00:15.792Z,13.10
2017-09-20T06:02:42.460Z,11.90
2017-09-20T06:05:09.073Z,12.95
2017-09-20T06:07:35.774Z,12.65
2017-09-20T06:10:02.385Z,10.85
2017-09-20T06:12:28.994Z,11.27
2017-09-20T06:14:55.631Z,13.18
2017-09-20T06:17:22.289Z,11.68
2017-09-20T06:19:48.894Z,10.93
2017-09-20T06:22:15.526Z,12.32
2017-09-20T06:24:42.136Z,10.27
2017-09-20T06:27:08.759Z,12.52
2017-09-20T06:29:35.406Z,12.15
2017-09-20T06:32:02.021Z,12.68
2017-09-20T06:34:28.642Z,12.40
2017-09-20T06:36:55.274Z,15.23
2017-09-20T06:39:21.896Z,14.80
2017-09-20T06:41:48.506Z,15.75
2017-09-20T06:44:15.130Z,15.35
2017-09-20T06:46:41.750Z,16.70
2017-09-20T06:49:08.362Z,17.25
2017-09-20T06:51:34.986Z,17.65
2017-09-20T06:54:01.608Z,16.08
2017-09-20T06:56:28.352Z,15.40
2017-09-20T06:58:54.977Z,15.38
2017-09-20T07:01:21.587Z,17.98
2017-09-20T07:03:48.210Z,16.37
2017-09-20T07:06:14.862Z,14.85
2017-09-20T07:08:41.479Z,16.50
2017-09-20T07:11:08.094Z,18.75
2017-09-20T07:13:34.728Z,16.52
2017-09-20T07:16:01.338Z,17.25
2017-09-20T07:18:28.058Z,20.92
2017-09-20T07:20:54.740Z,19.62
2017-09-20T07:23:21.483Z,19.12
2017-09-20T07:25:48.090Z,17.87
2017-09-20T07:28:14.760Z,18.55
2017-09-20T07:30:41.367Z,20.08
2017-09-20T07:33:07.982Z,21.48
2017-09-20T07:35:34.630Z,19.00
2017-09-20T07:38:01.279Z,20.27
2017-09-20T07:40:27.893Z,20.08
2017-09-20T07:42:55.482Z,19.55
2017-09-20T07:45:22.095Z,17.52
2017-09-20T07:47:48.710Z,18.65
2017-09-20T07:50:15.337Z,17.35
2017-09-20T07:52:41.954Z,17.08
2017-09-20T07:55:08.670Z,17.90
2017-09-20T07:57:35.298Z,19.77
2017-09-20T08:00:01.909Z,18.02
2017-09-20T08:02:28.522Z,19.95
2017-09-20T08:04:55.156Z,19.87
2017-09-20T08:07:21.757Z,18.65
2017-09-20T08:09:48.381Z,21.25
2017-09-20T08:12:15.013Z,18.98
2017-09-20T08:14:41.634Z,21.37
2017-09-20T08:17:08.318Z,21.48
2017-09-20T08:19:35.059Z,18.67
2017-09-20T08:22:01.676Z,20.80
2017-09-20T08:24:28.340Z,18.83
2017-09-20T08:26:54.966Z,20.77
2017-09-20T08:29:21.619Z,19.45
2017-09-20T08:31:48.224Z,22.33
2017-09-20T08:34:14.858Z,21.65
2017-09-20T08:36:41.471Z,23.40
2017-09-20T08:39:08.083Z,24.63
2017-09-20T08:41:34.811Z,25.12
2017-09-20T08:44:01.446Z,24.90
2017-09-20T08:46:28.067Z,22.83
2017-09-20T08:48:54.698Z,22.60
2017-09-20T08:51:21.314Z,25.37
2017-09-20T08:53:47.923Z,26.20
2017-09-20T08:56:14.554Z,24.85
2017-09-20T08:58:41.163Z,22.08
2017-09-20T09:01:07.818Z,24.12
2017-09-20T09:03:34.455Z,24.33
2017-09-20T09:06:01.065Z,25.42
2017-09-20T09:08:27.680Z,23.58
2017-09-20T09:10:54.307Z,23.05
2017-09-20T09:13:20.926Z,24.12
2017-09-20T09:15:47.542Z,22.30
2017-09-20T09:18:14.175Z,22.80
2017-09-20T09:20:40.829Z,24.67
2017-09-20T09:23:07.442Z,25.52
2017-09-20T09:25:34.075Z,21.02
2017-09-20T09:28:00.692Z,25.45
2017-09-20T09:30:27.308Z,25.08
2017-09-20T09:32:53.942Z,20.55
2017-09-20T09:35:20.550Z,23.10
2017-09-20T09:37:47.173Z,22.08
2017-09-20T09:40:13.802Z,21.80
2017-09-20T09:42:40.418Z,21.75
2017-09-20T09:45:07.122Z,21.33
2017-09-20T09:47:33.757Z,21.58
2017-09-20T09:50:00.382Z,21.90
2017-09-20T09:52:27.022Z,21.60
2017-09-20T09:54:53.650Z,19.50
2017-09-20T09:57:20.267Z,19.20
2017-09-20T09:59:46.910Z,20.62
2017-09-20T10:02:13.596Z,19.55
2017-09-20T10:04:40.206Z,20.20
2017-09-20T10:07:06.866Z,20.70
2017-09-20T10:09:33.506Z,20.37
2017-09-20T10:12:00.129Z,21.48
2017-09-20T10:14:26.781Z,21.10
2017-09-20T10:16:53.531Z,18.45
2017-09-20T10:19:20.730Z,17.05
2017-09-20T10:21:47.392Z,17.62
2017-09-20T10:24:14.208Z,16.45
2017-09-20T10:26:40.818Z,15.57
2017-09-20T10:29:07.430Z,16.62
2017-09-20T10:31:34.058Z,15.75
2017-09-20T10:34:00.901Z,14.65
2017-09-20T10:36:27.540Z,15.35
2017-09-20T10:38:54.245Z,20.70
2017-09-20T10:41:20.886Z,18.35
2017-09-20T10:43:47.582Z,17.37
2017-09-20T10:46:14.228Z,18.08
2017-09-20T10:48:40.850Z,15.38
2017-09-20T10:51:07.462Z,13.98
2017-09-20T10:53:34.099Z,13.57
2017-09-20T10:56:00.775Z,13.95
2017-09-20T10:58:27.385Z,14.55
2017-09-20T11:00:54.018Z,12.80
2017-09-20T11:03:20.626Z,22.15
2017-09-20T11:05:47.338Z,13.43
2017-09-20T11:08:13.968Z,12.45
2017-09-20T11:10:40.609Z,15.63
2017-09-20T11:13:07.229Z,15.85
2017-09-20T11:15:33.932Z,15.60
2017-09-20T11:18:00.543Z,12.60
2017-09-20T11:20:27.150Z,11.88
2017-09-20T11:22:53.782Z,11.65
2017-09-20T11:25:20.393Z,13.23
2017-09-20T11:27:47.003Z,13.60
2017-09-20T11:30:13.633Z,13.90
2017-09-20T11:32:40.363Z,13.30
2017-09-20T11:35:07.007Z,13.40
2017-09-20T11:37:33.643Z,13.40
2017-09-20T11:40:00.267Z,14.48
2017-09-20T11:42:26.886Z,15.02
2017-09-20T11:44:53.518Z,13.40
2017-09-20T11:47:20.209Z,13.62
2017-09-20T11:49:46.823Z,11.68
2017-09-20T11:52:13.458Z,13.82
2017-09-20T11:54:40.074Z,12.80
2017-09-20T11:57:06.717Z,13.38
2017-09-20T11:59:33.351Z,15.00
2017-09-20T12:02:00.032Z,13.50
2017-09-20T12:04:26.646Z,10.50
2017-09-20T12:06:53.313Z,10.68
2017-09-20T12:09:19.927Z,10.23
2017-09-20T12:11:46.587Z,10.35
2017-09-20T12:14:13.213Z,10.48
2017-09-20T12:16:39.866Z,10.27
2017-09-20T12:19:06.547Z,10.32
2017-09-20T12:21:33.186Z,9.95
2017-09-20T12:23:59.894Z,10.90
2017-09-20T12:26:26.568Z,11.18
2017-09-20T12:28:53.199Z,10.88
2017-09-20T12:31:19.908Z,9.75
2017-09-20T12:33:46.510Z,7.50
2017-09-20T12:36:13.140Z,8.85
2017-09-20T12:38:39.751Z,9.23
2017-09-20T12:41:06.362Z,5.50
2017-09-20T12:43:32.994Z,11.15
2017-09-20T12:45:59.615Z,10.55
2017-09-20T12:48:26.224Z,7.50
2017-09-20T12:50:52.959Z,3.60
2017-09-20T12:53:19.574Z,2.55
2017-09-20T12:55:46.178Z,2.28
2017-09-20T12:58:12.797Z,2.87
2017-09-20T13:00:39.409Z,2.25
2017-09-20T13:03:06.013Z,4.00
2017-09-20T13:05:32.639Z,4.10
2017-09-20T13:07:59.283Z,4.50
2017-09-20T13:10:25.929Z,4.45
2017-09-20T13:12:52.549Z,5.20
2017-09-20T13:15:19.874Z,7.62
2017-09-20T13:17:47.214Z,5.12
2017-09-20T13:20:14.892Z,6.07
2017-09-20T13:22:41.562Z,6.45
2017-09-20T13:25:09.691Z,6.07
2017-09-20T13:27:36.531Z,10.10
2017-09-20T13:30:03.542Z,8.50
2017-09-20T13:32:31.757Z,8.57
2017-09-20T13:34:58.559Z,11.60
2017-09-20T13:37:25.176Z,8.15
2017-09-20T13:39:51.786Z,12.13
2017-09-20T13:42:18.418Z,17.62
2017-09-20T13:44:45.022Z,6.55
2017-09-20T13:47:11.634Z,8.65
2017-09-20T13:49:38.256Z,7.47
2017-09-20T13:52:04.867Z,8.27
2017-09-20T13:54:31.483Z,12.55
2017-09-20T13:56:58.206Z,10.18
2017-09-20T13:59:24.823Z,15.23
2017-09-20T14:01:51.443Z,11.40
2017-09-20T14:04:18.066Z,12.55
2017-09-20T14:06:44.678Z,15.55
2017-09-20T14:09:11.282Z,7.07
2017-09-20T14:11:37.906Z,7.12
2017-09-20T14:14:04.516Z,8.65
2017-09-20T14:16:31.121Z,9.25
2017-09-20T14:18:57.759Z,9.25
2017-09-20T14:21:24.370Z,10.30
2017-09-20T14:23:50.978Z,9.82
2017-09-20T14:26:17.611Z,11.43
2017-09-20T14:28:44.224Z,9.13
2017-09-20T14:31:10.835Z,11.23
2017-09-20T14:33:37.485Z,8.43
2017-09-20T14:36:04.091Z,9.27
2017-09-20T14:38:30.704Z,11.40
2017-09-20T14:40:57.334Z,10.40
2017-09-20T14:43:24.041Z,10.52
2017-09-20T14:45:50.650Z,11.05
2017-09-20T14:48:17.277Z,10.70
2017-09-20T14:50:43.886Z,12.37
2017-09-20T14:53:10.601Z,10.85
2017-09-20T14:55:37.227Z,10.68
2017-09-20T14:58:03.846Z,9.77
2017-09-20T15:00:30.513Z,10.02
2017-09-20T15:02:57.136Z,7.95
2017-09-20T15:05:23.738Z,8.80
2017-09-20T15:07:50.337Z,8.10
2017-09-20T15:10:16.971Z,10.65
2017-09-20T15:12:43.582Z,7.47
2017-09-20T15:15:10.190Z,10.43
2017-09-20T15:17:36.823Z,13.98
2017-09-20T15:20:03.438Z,7.60
2017-09-20T15:22:30.046Z,6.70
2017-09-20T15:24:56.686Z,8.68
2017-09-20T15:27:23.294Z,7.28
2017-09-20T15:29:49.902Z,7.40
2017-09-20T15:32:16.530Z,8.82
2017-09-20T15:34:43.143Z,8.68
2017-09-20T15:37:09.790Z,9.13
2017-09-20T15:39:36.478Z,10.70
2017-09-20T15:42:03.090Z,9.48
2017-09-20T15:44:29.692Z,10.60
2017-09-20T15:46:56.314Z,9.43
2017-09-20T15:49:22.923Z,8.30
2017-09-20T15:51:49.532Z,9.85
2017-09-20T15:54:16.162Z,12.73
2017-09-20T15:56:42.774Z,9.23
2017-09-20T15:59:09.384Z,8.80
2017-09-20T16:01:36.006Z,7.90
2017-09-20T16:04:02.730Z,9.65
2017-09-20T16:06:29.333Z,9.07
2017-09-20T16:08:55.958Z,8.35
2017-09-20T16:11:22.634Z,7.87
2017-09-20T16:13:49.234Z,7.85
2017-09-20T16:16:15.850Z,7.55
2017-09-20T16:18:42.454Z,8.00
2017-09-20T16:21:09.090Z,7.65
2017-09-20T16:23:35.730Z,7.65
2017-09-20T16:26:02.365Z,8.18
2017-09-20T16:28:28.966Z,7.12
2017-09-20T16:30:55.588Z,7.60
2017-09-20T16:33:22.294Z,8.55
2017-09-20T16:35:48.904Z,9.00
2017-09-20T16:38:15.524Z,8.48
2017-09-20T16:40:42.139Z,9.27
2017-09-20T16:43:08.750Z,8.27
2017-09-20T16:45:35.375Z,9.00
2017-09-20T16:48:02.026Z,8.15
2017-09-20T16:50:28.667Z,9.18
2017-09-20T16:52:55.285Z,9.30
2017-09-20T16:55:21.894Z,7.15
2017-09-20T16:57:48.499Z,8.18
2017-09-20T17:00:15.214Z,7.68
2017-09-20T17:02:41.855Z,6.40
2017-09-20T17:05:08.491Z,5.95
2017-09-20T17:07:35.119Z,8.10
2017-09-20T17:10:01.770Z,8.02
2017-09-20T17:12:28.414Z,8.27
2017-09-20T17:14:55.029Z,9.00
2017-09-20T17:17:21.639Z,9.00
2017-09-20T17:19:48.246Z,7.55
2017-09-20T17:22:14.870Z,8.15
2017-09-20T17:24:41.474Z,8.73
2017-09-20T17:27:08.087Z,9.25
2017-09-20T17:29:34.707Z,7.87
2017-09-20T17:32:01.323Z,8.82
2017-09-20T17:34:27.964Z,9.20
2017-09-20T17:36:54.596Z,9.38
2017-09-20T17:39:21.235Z,8.32
2017-09-20T17:41:47.847Z,10.02
2017-09-20T17:44:14.470Z,8.98
2017-09-20T17:46:41.078Z,9.70
2017-09-20T17:49:07.690Z,9.20
2017-09-20T17:51:34.322Z,9.75
2017-09-20T17:54:00.933Z,11.15
2017-09-20T17:56:27.653Z,9.40
2017-09-20T17:58:54.274Z,10.27
2017-09-20T18:01:21.032Z,9.98
2017-09-20T18:03:47.670Z,11.05
2017-09-20T18:06:14.413Z,11.10
2017-09-20T18:08:41.110Z,11.82
2017-09-20T18:11:07.745Z,10.65
2017-09-20T18:13:34.386Z,12.05
2017-09-20T18:16:01.027Z,12.07
2017-09-20T18:18:27.634Z,11.07
2017-09-20T18:20:54.265Z,11.93
2017-09-20T18:23:20.988Z,12.45
2017-09-20T18:25:47.598Z,11.88
2017-09-20T18:28:14.217Z,12.82
2017-09-20T18:30:40.829Z,13.48
2017-09-20T18:33:07.444Z,12.43
2017-09-20T18:35:34.143Z,10.85
2017-09-20T18:38:00.780Z,12.60
2017-09-20T18:40:27.389Z,14.30
2017-09-20T18:42:54.022Z,15.90
2017-09-20T18:45:20.636Z,12.15
2017-09-20T18:47:47.242Z,13.68
2017-09-20T18:50:13.875Z,16.27
2017-09-20T18:52:40.486Z,9.85
2017-09-20T18:55:07.103Z,15.75
2017-09-20T18:57:33.731Z,11.55
2017-09-20T19:00:00.426Z,8.98
2017-09-20T19:02:27.031Z,9.07
2017-09-20T19:04:53.704Z,8.88
2017-09-20T19:07:20.318Z,10.85
2017-09-20T19:09:46.983Z,8.45
2017-09-20T19:12:13.622Z,9.40
2017-09-20T19:14:40.231Z,8.90
2017-09-20T19:17:06.838Z,10.75
2017-09-20T19:19:33.471Z,10.32
2017-09-20T19:22:00.078Z,9.27
2017-09-20T19:24:26.682Z,9.32
2017-09-20T19:26:53.311Z,9.00
2017-09-20T19:29:19.926Z,10.05
2017-09-20T19:31:46.539Z,10.18
2017-09-20T19:34:13.165Z,10.50
2017-09-20T19:36:39.779Z,10.38
2017-09-20T19:39:06.388Z,10.68
2017-09-20T19:41:33.015Z,9.77
2017-09-20T19:43:59.723Z,10.18
2017-09-20T19:46:26.348Z,10.65
2017-09-20T19:48:52.979Z,10.98
2017-09-20T19:51:19.599Z,10.63
2017-09-20T19:53:46.219Z,11.38
2017-09-20T19:56:12.851Z,20.27
2017-09-20T19:58:39.466Z,11.95
2017-09-20T20:01:06.078Z,10.10
2017-09-20T20:03:32.702Z,10.05
2017-09-20T20:05:59.318Z,10.80
2017-09-20T20:08:25.925Z,12.50
2017-09-20T20:10:52.657Z,10.20
2017-09-20T20:13:19.270Z,11.70
2017-09-20T20:15:45.930Z,10.68
2017-09-20T20:18:12.562Z,11.20
2017-09-20T20:20:39.173Z,10.25
2017-09-20T20:23:05.783Z,11.60
2017-09-20T20:25:33.400Z,11.25
2017-09-20T20:28:00.010Z,11.63
2017-09-20T20:30:26.627Z,11.82
2017-09-20T20:32:53.250Z,10.98
2017-09-20T20:35:19.961Z,11.98
2017-09-20T20:37:46.577Z,11.63
2017-09-20T20:40:13.207Z,12.05
2017-09-20T20:42:39.814Z,10.98
2017-09-20T20:45:06.429Z,12.23
2017-09-20T20:47:33.062Z,14.57
2017-09-20T20:49:59.674Z,15.75
2017-09-20T20:52:26.287Z,18.40
2017-09-20T20:54:52.920Z,17.30
2017-09-20T20:57:19.529Z,18.30
2017-09-20T20:59:46.143Z,19.95
2017-09-20T21:02:12.778Z,19.30
2017-09-20T21:04:39.391Z,21.30
2017-09-20T21:07:06.074Z,19.50
2017-09-20T21:09:32.705Z,19.77
2017-09-20T21:11:59.310Z,18.02
2017-09-20T21:14:25.928Z,16.33
2017-09-20T21:16:52.627Z,16.05
2017-09-20T21:19:19.237Z,15.75
2017-09-20T21:21:45.904Z,15.88
2017-09-20T21:24:12.647Z,17.02
2017-09-20T21:26:39.259Z,17.10
2017-09-20T21:29:05.871Z,14.90
2017-09-20T21:31:32.557Z,14.73
2017-09-20T21:33:59.174Z,14.38
2017-09-20T21:36:25.792Z,12.68
2017-09-20T21:38:52.522Z,11.70
2017-09-20T21:41:19.134Z,12.63
2017-09-20T21:43:45.742Z,12.88
2017-09-20T21:46:12.393Z,13.07
2017-09-20T21:48:39.035Z,13.02
2017-09-20T21:51:05.660Z,13.38
2017-09-20T21:53:32.291Z,13.38
2017-09-20T21:55:58.906Z,13.82
2017-09-20T21:58:25.586Z,13.23
2017-09-20T22:00:52.208Z,11.82
2017-09-20T22:03:18.825Z,11.20
2017-09-20T22:05:45.440Z,11.25
2017-09-20T22:08:12.141Z,12.75
2017-09-20T22:10:38.755Z,12.43
2017-09-20T22:13:05.366Z,12.88
2017-09-20T22:15:37.897Z,13.48
2017-09-20T22:18:10.578Z,12.23
2017-09-20T22:20:43.263Z,13.20
2017-09-20T22:23:15.794Z,14.87
2017-09-20T22:25:48.414Z,13.52
2017-09-20T22:28:15.030Z,12.82
2017-09-20T22:30:41.636Z,12.25
2017-09-20T22:33:08.265Z,12.40
2017-09-20T22:35:34.872Z,13.20
2017-09-20T22:38:01.482Z,13.40
2017-09-20T22:40:28.111Z,13.02
2017-09-20T22:42:54.728Z,13.88
2017-09-20T22:45:21.334Z,13.55
2017-09-20T22:47:47.978Z,15.18
2017-09-20T22:50:14.585Z,13.73
2017-09-20T22:52:41.202Z,14.23
2017-09-20T22:55:07.826Z,14.27
2017-09-20T22:57:34.523Z,14.57
2017-09-20T23:00:01.134Z,14.20
2017-09-20T23:02:27.760Z,14.68
2017-09-20T23:04:54.375Z,13.15
2017-09-20T23:07:20.986Z,13.57
2017-09-20T23:09:47.613Z,13.60
2017-09-20T23:12:14.235Z,14.00
2017-09-20T23:14:40.840Z,12.98
2017-09-20T23:17:07.480Z,13.90
2017-09-20T23:19:34.091Z,12.55
2017-09-20T23:22:00.814Z,13.13
2017-09-20T23:24:27.434Z,12.60
2017-09-20T23:26:54.051Z,13.50
2017-09-20T23:29:20.662Z,13.88
2017-09-20T23:31:47.294Z,12.93
2017-09-20T23:34:14.106Z,16.33
2017-09-20T23:36:40.722Z,16.62
2017-09-20T23:39:07.357Z,15.05
2017-09-20T23:41:33.990Z,14.52
2017-09-20T23:44:00.600Z,14.85
2017-09-20T23:46:27.234Z,17.45
2017-09-20T23:48:53.841Z,19.40
2017-09-20T23:51:20.462Z,17.65
2017-09-20T23:53:47.096Z,16.83
2017-09-20T23:56:13.702Z,13.45
2017-09-20T23:58:40.319Z,13.18
